createdAt,value
2022-09-07T03:02:22.761Z,20.5
2022-09-07T03:04:38.116Z,20.7
2022-09-07T03:06:53.367Z,20.8
2022-09-07T03:09:08.330Z,20.9
2022-09-07T03:11:23.487Z,21
2022-09-07T03:13:38.774Z,20.8
2022-09-07T03:15:56.095Z,20.8
2022-09-07T03:18:09.276Z,20.8
2022-09-07T03:20:25.323Z,20.8
2022-09-07T03:22:39.727Z,20.8
2022-09-07T03:24:54.670Z,20.9
2022-09-07T03:27:09.889Z,20.9
2022-09-07T03:29:25.179Z,20.8
2022-09-07T03:31:40.435Z,20.8
2022-09-07T03:33:55.598Z,20.6
2022-09-07T03:36:10.470Z,20.7
2022-09-07T03:38:25.292Z,20.8
2022-09-07T03:40:40.653Z,20.8
2022-09-07T03:42:55.893Z,20.6
2022-09-07T03:45:10.852Z,20.6
2022-09-07T03:47:26.132Z,21.1
2022-09-07T03:49:41.417Z,20.6
2022-09-07T03:51:56.626Z,20.7
2022-09-07T03:54:11.869Z,20.6
2022-09-07T03:56:27.117Z,20.8
2022-09-07T03:58:42.415Z,20.6
2022-09-07T04:00:57.628Z,20.6
2022-09-07T04:03:12.538Z,20.8
2022-09-07T04:05:27.911Z,20.9
2022-09-07T04:07:43.114Z,20.5
2022-09-07T04:09:58.423Z,20.7
2022-09-07T04:12:13.545Z,20.5
2022-09-07T04:14:28.776Z,20.6
2022-09-07T04:16:43.730Z,20.6
2022-09-07T04:18:59.065Z,20.9
2022-09-07T04:21:14.268Z,20.6
2022-09-07T04:23:29.656Z,20.6
2022-09-07T04:25:45.053Z,20.6
2022-09-07T04:28:00.120Z,20.6
2022-09-07T04:30:15.613Z,20.6
2022-09-07T04:32:30.273Z,20.6
2022-09-07T04:34:45.571Z,20.6
2022-09-07T04:37:00.765Z,20.6
2022-09-07T04:39:15.647Z,20.6
2022-09-07T04:41:30.966Z,21
2022-09-07T04:43:46.247Z,20.6
2022-09-07T04:46:01.214Z,20.6
2022-09-07T04:48:16.434Z,20.9
2022-09-07T04:50:31.740Z,20.6
2022-09-07T04:52:47.085Z,20.8
2022-09-07T04:55:02.226Z,20.8
2022-09-07T04:57:17.507Z,20.8
2022-09-07T04:59:32.812Z,20.7
2022-09-07T05:01:47.953Z,20.8
2022-09-07T05:04:03.289Z,20.9
2022-09-07T05:06:18.376Z,20.8
2022-09-07T05:08:33.697Z,21.3
2022-09-07T05:10:49.487Z,20.8
2022-09-07T05:13:04.442Z,20.9
2022-09-07T05:15:19.703Z,20.9
2022-09-07T05:17:35.188Z,20.9
2022-09-07T05:19:50.524Z,20.8
2022-09-07T05:22:05.538Z,20.9
2022-09-07T05:24:20.889Z,21.4
2022-09-07T05:28:51.340Z,21.4
2022-09-07T05:32:32.066Z,21
2022-09-07T05:35:21.999Z,21.1
2022-09-07T05:37:37.287Z,21.2
2022-09-07T05:39:52.650Z,21.3
2022-09-07T05:42:07.856Z,21.3
2022-09-07T05:45:13.782Z,21.3
2022-09-07T05:47:29.023Z,21.3
2022-09-07T05:49:44.302Z,21.3
2022-09-07T05:51:59.265Z,21.4
2022-09-07T05:54:14.048Z,21.8
2022-09-07T05:56:37.700Z,21.6
2022-09-07T05:58:52.236Z,21.3
2022-09-07T06:01:07.577Z,21.4
2022-09-07T06:03:22.994Z,21.5
2022-09-07T06:05:37.797Z,21.5
2022-09-07T06:08:08.186Z,21.7
2022-09-07T06:11:13.370Z,21.4
2022-09-07T06:13:28.804Z,21.7
2022-09-07T06:15:43.973Z,21.6
2022-09-07T06:17:59.306Z,21.6
2022-09-07T06:20:14.629Z,21.6
2022-09-07T06:22:31.101Z,21.8
2022-09-07T06:24:45.180Z,21.8
2022-09-07T06:27:00.675Z,21.8
2022-09-07T06:29:15.336Z,21.8
2022-09-07T06:31:30.799Z,22.2
2022-09-07T06:34:20.872Z,21.8
2022-09-07T06:36:36.154Z,21.9
2022-09-07T06:38:50.982Z,21.9
2022-09-07T06:43:56.559Z,22.2
2022-09-07T06:49:01.866Z,22.3
2022-09-07T06:51:17.139Z,22.1
2022-09-07T06:56:57.338Z,22.2
2022-09-07T06:59:12.698Z,22.2
2022-09-07T07:01:27.668Z,22.3
2022-09-07T07:03:42.795Z,22.4
2022-09-07T07:05:57.604Z,22.2
2022-09-07T07:08:12.539Z,22.7
2022-09-07T07:10:27.770Z,22.6
2022-09-07T07:14:58.508Z,22.6
2022-09-07T07:17:13.735Z,22.6
2022-09-07T07:19:33.103Z,22.7
2022-09-07T07:24:33.480Z,22.8
2022-09-07T07:26:48.780Z,22.8
2022-09-07T07:29:39.439Z,22.7
2022-09-07T07:31:54.745Z,22.8
2022-09-07T07:34:10.016Z,22.9
2022-09-07T07:36:25.175Z,22.8
2022-09-07T07:43:08.800Z,22.8
2022-09-07T07:45:59.243Z,22.9
2022-09-07T07:48:14.289Z,23
2022-09-07T07:50:47.053Z,23.1
2022-09-07T07:54:44.408Z,23.1
2022-09-07T07:57:17.294Z,23.3
2022-09-07T07:59:31.988Z,23.1
2022-09-07T08:01:55.807Z,23.2
2022-09-07T08:04:10.648Z,23.4
2022-09-07T08:06:25.619Z,23.4
2022-09-07T08:08:40.275Z,23.5
2022-09-07T08:10:55.178Z,23.4
2022-09-07T08:13:10.008Z,23.8
2022-09-07T08:15:24.803Z,23.8
2022-09-07T08:17:39.663Z,23.7
2022-09-07T08:19:54.418Z,23.9
2022-09-07T08:22:09.339Z,23.8
2022-09-07T08:24:24.129Z,23.4
2022-09-07T08:26:38.971Z,23.4
2022-09-07T08:28:53.857Z,23.4
2022-09-07T08:31:08.755Z,23.4
2022-09-07T08:33:23.590Z,23.5
2022-09-07T08:35:37.827Z,23.6
2022-09-07T08:37:53.208Z,23.8
2022-09-07T08:40:08.267Z,23.8
2022-09-07T08:42:22.924Z,24.2
2022-09-07T08:44:37.675Z,24.3
2022-09-07T08:46:52.542Z,24.4
2022-09-07T08:49:07.348Z,24.2
2022-09-07T08:51:24.297Z,24.3
2022-09-07T08:53:37.143Z,24
2022-09-07T08:55:51.964Z,24
2022-09-07T08:58:47.525Z,23.8
2022-09-07T09:03:30.946Z,22.9
2022-09-07T09:06:34.906Z,23.6
2022-09-07T09:08:49.455Z,23.9
2022-09-07T09:11:05.374Z,23.9
2022-09-07T09:13:19.718Z,24.1
2022-09-07T09:15:34.926Z,24.6
2022-09-07T09:17:49.672Z,24.7
2022-09-07T09:20:04.479Z,24.6
2022-09-07T09:22:19.528Z,24.6
2022-09-07T09:24:34.414Z,24.6
2022-09-07T09:29:04.404Z,24.6
2022-09-07T09:31:19.756Z,24.6
2022-09-07T09:33:34.314Z,24.8
2022-09-07T09:35:49.493Z,24.4
2022-09-07T09:38:04.267Z,24.6
2022-09-07T09:40:19.463Z,24.4
2022-09-07T09:42:34.268Z,24.5
2022-09-07T09:44:48.909Z,24.7
2022-09-07T09:48:02.680Z,24.4
2022-09-07T09:52:28.785Z,24.1
2022-09-07T09:54:39.174Z,24.2
2022-09-07T09:57:06.378Z,24.6
2022-09-07T10:00:30.450Z,24.7
2022-09-07T10:04:24.620Z,24.4
2022-09-07T10:06:37.957Z,24.3
2022-09-07T10:08:52.782Z,24.4
2022-09-07T10:11:07.635Z,24.4
2022-09-07T10:13:52.824Z,24.4
2022-09-07T10:16:07.801Z,24.7
2022-09-07T10:18:22.437Z,24.5
2022-09-07T10:20:37.210Z,24.6
2022-09-07T10:22:52.058Z,24.7
2022-09-07T10:25:06.798Z,24.6
2022-09-07T10:27:21.642Z,24.8
2022-09-07T10:29:54.272Z,25
2022-09-07T10:32:09.070Z,24.9
2022-09-07T10:34:41.703Z,24.6
2022-09-07T10:36:56.631Z,24.9
2022-09-07T10:39:11.425Z,24.9
2022-09-07T10:41:26.314Z,24.9
2022-09-07T10:44:09.287Z,25.1
2022-09-07T10:48:56.432Z,24.6
2022-09-07T10:51:39.030Z,25
2022-09-07T10:54:30.240Z,24.8
2022-09-07T10:56:43.494Z,24.9
2022-09-07T10:59:16.518Z,25
2022-09-07T11:01:49.512Z,24.8
2022-09-07T11:04:21.850Z,25
2022-09-07T11:06:36.472Z,24.8
2022-09-07T11:09:19.277Z,24.9
2022-09-07T11:14:19.356Z,25.4
2022-09-07T11:16:51.952Z,25.3
2022-09-07T11:21:56.957Z,25.6
2022-09-07T11:24:12.143Z,25.3
2022-09-07T11:26:44.682Z,25.3
2022-09-07T11:31:32.256Z,25.3
2022-09-07T11:34:23.599Z,25.3
2022-09-07T11:36:26.593Z,25.4
2022-09-07T11:38:41.494Z,25.3
2022-09-07T11:40:56.417Z,25.3
2022-09-07T11:43:28.847Z,25
2022-09-07T11:45:43.705Z,25.3
2022-09-07T11:47:58.794Z,25.2
2022-09-07T11:50:13.497Z,25
2022-09-07T11:52:28.237Z,25
2022-09-07T11:54:43.162Z,25.1
2022-09-07T11:56:58.117Z,25.2
2022-09-07T11:59:12.836Z,25.4
2022-09-07T12:01:27.920Z,25.2
2022-09-07T12:03:51.674Z,25
2022-09-07T12:06:06.431Z,24.9
2022-09-07T12:08:21.347Z,24.9
2022-09-07T12:10:36.169Z,25.1
2022-09-07T12:12:51.023Z,24.9
2022-09-07T12:15:05.812Z,25.1
2022-09-07T12:17:20.549Z,25.1
2022-09-07T12:19:35.398Z,24.9
2022-09-07T12:21:50.278Z,24.9
2022-09-07T12:24:05.186Z,24.9
2022-09-07T12:26:20.012Z,24.9
2022-09-07T12:28:35.075Z,24.9
2022-09-07T12:30:49.753Z,25
2022-09-07T12:33:41.442Z,25
2022-09-07T12:35:56.228Z,24.9
2022-09-07T12:38:11.322Z,24.8
2022-09-07T12:40:25.923Z,24.8
2022-09-07T12:43:04.372Z,24.9
2022-09-07T12:45:13.488Z,24.9
2022-09-07T12:47:28.286Z,24.9
2022-09-07T12:49:43.080Z,24.9
2022-09-07T12:52:16.230Z,24.8
2022-09-07T12:54:30.688Z,25
2022-09-07T12:57:33.658Z,24.9
2022-09-07T12:59:49.103Z,25.1
2022-09-07T13:02:04.148Z,24.9
2022-09-07T13:04:36.183Z,24.7
2022-09-07T13:07:19.369Z,24.9
2022-09-07T13:09:34.468Z,24.8
2022-09-07T13:11:49.160Z,24.8
2022-09-07T13:14:39.684Z,24.7
2022-09-07T13:17:19.245Z,24.8
2022-09-07T13:19:27.358Z,24.8
2022-09-07T13:21:42.174Z,24.9
2022-09-07T13:23:57.092Z,24.9
2022-09-07T13:26:33.319Z,25
2022-09-07T13:28:48.037Z,24.9
2022-09-07T13:31:02.947Z,24.9
2022-09-07T13:33:35.336Z,24.9
2022-09-07T13:35:50.251Z,25
2022-09-07T13:38:05.119Z,24.8
2022-09-07T13:40:19.873Z,24.9
2022-09-07T13:42:34.750Z,24.8
2022-09-07T13:44:49.614Z,24.8
2022-09-07T13:47:04.470Z,24.8
2022-09-07T13:49:19.234Z,24.8
2022-09-07T13:51:34.226Z,24.8
2022-09-07T13:53:48.895Z,24.9
2022-09-07T13:56:03.785Z,24.8
2022-09-07T13:58:18.661Z,24.8
2022-09-07T14:00:33.554Z,24.8
2022-09-07T14:02:49.682Z,24.8
2022-09-07T14:05:03.136Z,24.9
2022-09-07T14:07:18.187Z,24.7
2022-09-07T14:09:32.830Z,24.7
2022-09-07T14:11:47.655Z,24.8
2022-09-07T14:14:02.522Z,24.8
2022-09-07T14:16:17.722Z,24.8
2022-09-07T14:18:32.128Z,24.9
2022-09-07T14:20:47.098Z,24.8
2022-09-07T14:23:01.927Z,24.8
2022-09-07T14:25:16.704Z,24.8
2022-09-07T14:28:03.953Z,24.6
2022-09-07T14:30:18.791Z,24.9
2022-09-07T14:32:33.709Z,24.8
2022-09-07T14:34:48.467Z,24.8
2022-09-07T14:37:18.147Z,24.7
2022-09-07T14:40:06.439Z,24.8
2022-09-07T14:42:21.251Z,24.7
2022-09-07T14:44:35.893Z,24.7
2022-09-07T14:46:55.336Z,24.8
2022-09-07T14:49:05.760Z,24.6
2022-09-07T14:51:36.394Z,24.8
2022-09-07T14:54:22.310Z,24.7
2022-09-07T14:56:37.133Z,24.9
2022-09-07T14:58:52.084Z,24.8
2022-09-07T15:02:42.984Z,24.2
2022-09-07T15:04:57.811Z,24.8
2022-09-07T15:07:48.743Z,24.9
2022-09-07T15:10:03.710Z,24.8
2022-09-07T15:12:39.121Z,24.9
2022-09-07T15:14:53.434Z,24.8
2022-09-07T15:17:45.263Z,24.8
2022-09-07T15:20:00.139Z,24.9
2022-09-07T15:22:14.842Z,24.9
2022-09-07T15:24:29.666Z,24.8
2022-09-07T15:27:04.908Z,24.9
2022-09-07T15:29:55.532Z,24.7
2022-09-07T15:32:38.757Z,24.8
2022-09-07T15:35:27.043Z,24.6
2022-09-07T15:41:24.598Z,24.9
2022-09-07T15:44:13.835Z,24.5
2022-09-07T15:46:27.474Z,24.8
2022-09-07T15:49:12.461Z,24.7
2022-09-07T15:54:47.602Z,24.3
2022-09-07T15:57:57.084Z,24.7
2022-09-07T16:00:04.690Z,24.6
2022-09-07T16:06:55.900Z,24.2
2022-09-07T16:10:02.308Z,24.8
2022-09-07T16:13:19.605Z,24.4
2022-09-07T16:15:45.043Z,24.3
2022-09-07T16:18:38.010Z,24.6
2022-09-07T16:20:54.881Z,24.4
2022-09-07T16:24:20.058Z,24.3
2022-09-07T16:26:34.834Z,24.1
2022-09-07T16:29:17.999Z,24.1
2022-09-07T16:31:30.540Z,24.3
2022-09-07T16:34:33.843Z,23.9
2022-09-07T16:37:09.643Z,23.8
2022-09-07T16:40:35.539Z,23.9
2022-09-07T16:42:55.068Z,23.8
2022-09-07T16:46:05.341Z,23.7
2022-09-07T16:48:39.435Z,23.7
2022-09-07T16:51:00.550Z,23.6
2022-09-07T16:53:19.282Z,23.7
2022-09-07T16:55:33.967Z,23.6
2022-09-07T16:58:38.240Z,23.6
2022-09-07T17:00:52.675Z,23.5
2022-09-07T17:03:08.026Z,23.5
2022-09-07T17:05:22.747Z,23.6
2022-09-07T17:07:37.852Z,23.6
2022-09-07T17:09:53.177Z,23.5
2022-09-07T17:12:08.022Z,23.4
2022-09-07T17:14:28.202Z,23.4
2022-09-07T17:16:43.424Z,23.2
2022-09-07T17:19:33.248Z,23.3
2022-09-07T17:22:09.147Z,23.1
2022-09-07T17:24:22.638Z,23.6
2022-09-07T17:27:08.123Z,23.1
2022-09-07T17:29:28.979Z,23.4
2022-09-07T17:32:41.990Z,23.1
2022-09-07T17:34:57.248Z,23.4
2022-09-07T17:37:12.423Z,23.4
2022-09-07T17:40:05.713Z,23.3
2022-09-07T17:42:26.293Z,23.4
2022-09-07T17:45:41.214Z,23.3
2022-09-07T17:47:56.550Z,23.1
2022-09-07T17:50:11.627Z,23.3
2022-09-07T17:52:26.925Z,23.3
2022-09-07T17:54:42.101Z,23.1
2022-09-07T17:56:57.288Z,23.6
2022-09-07T18:00:13.225Z,23.4
2022-09-07T18:02:28.764Z,22.9
2022-09-07T18:04:44.026Z,23.1
2022-09-07T18:06:58.866Z,23.3
2022-09-07T18:09:14.146Z,23.1
2022-09-07T18:12:33.560Z,22.9
2022-09-07T18:14:48.184Z,23.3
2022-09-07T18:17:03.725Z,23
2022-09-07T18:19:19.027Z,23.4
2022-09-07T18:21:34.221Z,22.8
2022-09-07T18:23:50.072Z,23.1
2022-09-07T18:26:04.898Z,22.7
2022-09-07T18:29:31.006Z,23.3
2022-09-07T18:31:36.440Z,22.8
2022-09-07T18:33:51.717Z,23.1
2022-09-07T18:36:06.838Z,23
2022-09-07T18:38:22.002Z,23
2022-09-07T18:40:38.422Z,23.1
2022-09-07T18:42:52.704Z,23
2022-09-07T18:46:14.822Z,23.3
2022-09-07T18:48:30.041Z,23.3
2022-09-07T18:50:44.867Z,23.4
2022-09-07T18:53:34.511Z,23
2022-09-07T18:55:50.699Z,22.8
2022-09-07T18:58:05.770Z,23.3
2022-09-07T19:00:20.014Z,23.4
2022-09-07T19:02:35.241Z,23.7
2022-09-07T19:07:42.005Z,23.4
2022-09-07T19:09:57.232Z,23.3
2022-09-07T19:12:12.150Z,23.4
2022-09-07T19:14:27.499Z,23.6
2022-09-07T19:16:42.430Z,23.4
2022-09-07T19:18:57.473Z,23.6
2022-09-07T19:21:16.655Z,23.7
2022-09-07T19:23:27.691Z,23.5
2022-09-07T19:25:42.672Z,23.4
2022-09-07T19:27:57.690Z,23.5
2022-09-07T19:30:12.851Z,23.4
2022-09-07T19:32:27.857Z,23.3
2022-09-07T19:34:43.251Z,23.5
2022-09-07T19:36:58.075Z,23.6
2022-09-07T19:39:13.216Z,23.3
2022-09-07T19:41:28.080Z,23.9
2022-09-07T19:43:43.111Z,23.4
2022-09-07T19:45:58.270Z,23.2
2022-09-07T19:48:13.144Z,23.1
2022-09-07T19:50:28.213Z,23.5
2022-09-07T19:52:43.066Z,23.4
2022-09-07T19:54:59.996Z,23.1
2022-09-07T19:57:15.193Z,23.3
2022-09-07T19:59:48.870Z,23.4
2022-09-07T20:02:03.988Z,23.1
2022-09-07T20:04:20.221Z,23.6
2022-09-07T20:06:33.696Z,23.7
2022-09-07T20:08:49.367Z,23.4
2022-09-07T20:11:03.699Z,23.3
2022-09-07T20:13:18.637Z,23.4
2022-09-07T20:15:47.339Z,23.3
2022-09-07T20:17:50.328Z,23.6
2022-09-07T20:20:04.275Z,23.1
2022-09-07T20:22:19.560Z,23.2
2022-09-07T20:24:34.642Z,23.2
2022-09-07T20:26:49.544Z,23.1
2022-09-07T20:29:26.537Z,23.3
2022-09-07T20:31:38.947Z,23.2
2022-09-07T20:33:52.959Z,23.1
2022-09-07T20:36:08.740Z,23.3
2022-09-07T20:38:23.887Z,23.7
2022-09-07T20:40:39.103Z,23.6
2022-09-07T20:42:54.259Z,23.4
2022-09-07T20:45:09.325Z,23.4
2022-09-07T20:47:30.943Z,23.4
2022-09-07T20:49:47.823Z,23.4
2022-09-07T20:52:09.056Z,23.5
2022-09-07T20:54:24.127Z,23.4
2022-09-07T20:56:39.242Z,22.9
2022-09-07T20:58:54.477Z,23.1
2022-09-07T21:02:25.266Z,22.9
2022-09-07T21:04:40.063Z,23.3
2022-09-07T21:06:55.226Z,23.1
2022-09-07T21:09:10.508Z,23.1
2022-09-07T21:11:26.162Z,23.3
2022-09-07T21:13:45.891Z,23.6
2022-09-07T21:16:01.081Z,23
2022-09-07T21:18:17.069Z,23.3
2022-09-07T21:20:32.108Z,23.6
2022-09-07T21:23:23.535Z,23.4
2022-09-07T21:25:38.446Z,23.5
2022-09-07T21:27:53.664Z,23.3
2022-09-07T21:30:08.894Z,23.1
2022-09-07T21:32:23.297Z,23
2022-09-07T21:34:39.159Z,23.2
2022-09-07T21:36:54.341Z,23.7
2022-09-07T21:39:12.537Z,23.4
2022-09-07T21:41:24.308Z,22.9
2022-09-07T21:43:39.536Z,22.9
2022-09-07T21:45:54.416Z,23
2022-09-07T21:48:13.141Z,23.1
2022-09-07T21:50:29.019Z,23.1
2022-09-07T21:52:43.874Z,22.9
2022-09-07T21:54:58.987Z,23.3
2022-09-07T21:57:29.895Z,23
2022-09-07T21:59:45.670Z,23
2022-09-07T22:02:00.492Z,22.9
2022-09-07T22:04:18.694Z,23.3
2022-09-07T22:06:33.905Z,23.2
2022-09-07T22:08:48.764Z,22.9
2022-09-07T22:11:03.608Z,23
2022-09-07T22:13:18.783Z,23
2022-09-07T22:15:34.427Z,22.8
2022-09-07T22:17:49.196Z,22.9
2022-09-07T22:20:04.324Z,22.8
2022-09-07T22:22:19.538Z,23.2
2022-09-07T22:24:34.669Z,23.1
2022-09-07T22:26:49.856Z,23.4
2022-09-07T22:29:04.992Z,23.3
2022-09-07T22:31:20.177Z,23.1
2022-09-07T22:33:35.343Z,22.9
2022-09-07T22:35:52.843Z,23.1
2022-09-07T22:38:05.701Z,22.9
2022-09-07T22:40:20.898Z,23.4
2022-09-07T22:42:36.356Z,23.1
2022-09-07T22:44:50.483Z,23.1
2022-09-07T22:47:06.311Z,23.1
2022-09-07T22:49:21.455Z,23.1
2022-09-07T22:51:42.070Z,23.3
2022-09-07T22:53:57.391Z,23.1
2022-09-07T22:56:12.687Z,22.8
2022-09-07T22:58:27.846Z,22.9
2022-09-07T23:00:43.029Z,22.8
2022-09-07T23:02:58.231Z,23.1
2022-09-07T23:05:46.570Z,22.7
2022-09-07T23:08:03.428Z,22.8
2022-09-07T23:10:17.734Z,23
2022-09-07T23:12:53.726Z,23.1
2022-09-07T23:15:08.205Z,23
2022-09-07T23:17:23.313Z,22.9
2022-09-07T23:19:38.478Z,22.8
2022-09-07T23:21:53.686Z,22.6
2022-09-07T23:24:08.854Z,22.6
2022-09-07T23:26:24.131Z,22.8
2022-09-07T23:28:39.271Z,23
2022-09-07T23:30:54.432Z,22.7
2022-09-07T23:33:09.884Z,22.6
2022-09-07T23:35:29.286Z,23
2022-09-07T23:37:44.875Z,22.8
2022-09-07T23:40:01.183Z,22.7
2022-09-07T23:42:17.003Z,22.6
2022-09-07T23:44:32.499Z,22.4
2022-09-07T23:46:47.731Z,22.7
2022-09-07T23:49:02.771Z,22.5
2022-09-07T23:51:23.011Z,22.6
2022-09-07T23:53:39.594Z,22.4
2022-09-07T23:55:54.006Z,22.6
2022-09-07T23:58:22.732Z,22.8
